sensor_id;sensor_type;location;lat;lon;timestamp;P1;durP1;ratioP1;P2;durP2;ratioP2
51558;SDS011;61650;48.882;2.092;2023-03-03T00:01:17;31.77;;;21.30;;
51558;SDS011;61650;48.882;2.092;2023-03-03T00:03:43;37.57;;;21.00;;
51558;SDS011;61650;48.882;2.092;2023-03-03T00:06:10;39.10;;;21.47;;
51558;SDS011;61650;48.882;2.092;2023-03-03T00:08:37;40.42;;;21.70;;
51558;SDS011;61650;48.882;2.092;2023-03-03T00:11:04;38.95;;;19.35;;
51558;SDS011;61650;48.882;2.092;2023-03-03T00:13:31;35.60;;;19.25;;
51558;SDS011;61650;48.882;2.092;2023-03-03T00:18:44;32.83;;;18.45;;
51558;SDS011;61650;48.882;2.092;2023-03-03T00:21:17;36.40;;;18.58;;
51558;SDS011;61650;48.882;2.092;2023-03-03T00:23:47;39.42;;;19.35;;
51558;SDS011;61650;48.882;2.092;2023-03-03T00:26:20;35.13;;;20.07;;
51558;SDS011;61650;48.882;2.092;2023-03-03T00:28:51;35.03;;;17.75;;
51558;SDS011;61650;48.882;2.092;2023-03-03T00:31:20;32.20;;;19.80;;
51558;SDS011;61650;48.882;2.092;2023-03-03T00:33:59;33.20;;;18.58;;
51558;SDS011;61650;48.882;2.092;2023-03-03T00:36:39;29.88;;;17.67;;
51558;SDS011;61650;48.882;2.092;2023-03-03T00:42:15;33.00;;;18.60;;
51558;SDS011;61650;48.882;2.092;2023-03-03T00:44:43;27.98;;;17.25;;
51558;SDS011;61650;48.882;2.092;2023-03-03T00:52:30;28.40;;;18.58;;
51558;SDS011;61650;48.882;2.092;2023-03-03T00:54:59;32.70;;;18.05;;
51558;SDS011;61650;48.882;2.092;2023-03-03T00:57:25;32.50;;;17.90;;
51558;SDS011;61650;48.882;2.092;2023-03-03T00:59:50;28.63;;;17.90;;
51558;SDS011;61650;48.882;2.092;2023-03-03T01:02:16;30.50;;;18.30;;
51558;SDS011;61650;48.882;2.092;2023-03-03T01:04:42;30.10;;;17.50;;
51558;SDS011;61650;48.882;2.092;2023-03-03T01:07:12;35.22;;;18.75;;
51558;SDS011;61650;48.882;2.092;2023-03-03T01:09:38;32.23;;;18.47;;
51558;SDS011;61650;48.882;2.092;2023-03-03T01:12:03;35.77;;;18.80;;
51558;SDS011;61650;48.882;2.092;2023-03-03T01:14:30;33.65;;;18.13;;
51558;SDS011;61650;48.882;2.092;2023-03-03T01:16:56;33.38;;;17.00;;
51558;SDS011;61650;48.882;2.092;2023-03-03T01:19:22;38.65;;;18.85;;
51558;SDS011;61650;48.882;2.092;2023-03-03T01:21:47;35.33;;;18.00;;
51558;SDS011;61650;48.882;2.092;2023-03-03T01:24:13;30.17;;;17.20;;
51558;SDS011;61650;48.882;2.092;2023-03-03T01:26:39;33.63;;;19.10;;
51558;SDS011;61650;48.882;2.092;2023-03-03T01:29:04;35.93;;;17.57;;
51558;SDS011;61650;48.882;2.092;2023-03-03T01:31:30;31.33;;;19.03;;
51558;SDS011;61650;48.882;2.092;2023-03-03T01:33:55;31.77;;;17.50;;
51558;SDS011;61650;48.882;2.092;2023-03-03T01:36:24;30.83;;;18.93;;
51558;SDS011;61650;48.882;2.092;2023-03-03T01:38:51;31.17;;;17.60;;
51558;SDS011;61650;48.882;2.092;2023-03-03T01:41:17;30.13;;;17.20;;
51558;SDS011;61650;48.882;2.092;2023-03-03T01:43:43;30.73;;;18.10;;
51558;SDS011;61650;48.882;2.092;2023-03-03T01:46:33;29.83;;;17.67;;
51558;SDS011;61650;48.882;2.092;2023-03-03T01:49:15;30.67;;;17.17;;
51558;SDS011;61650;48.882;2.092;2023-03-03T01:51:54;35.13;;;17.15;;
51558;SDS011;61650;48.882;2.092;2023-03-03T01:54:25;30.55;;;16.02;;
51558;SDS011;61650;48.882;2.092;2023-03-03T01:56:56;34.13;;;17.00;;
51558;SDS011;61650;48.882;2.092;2023-03-03T01:59:26;28.65;;;17.17;;
51558;SDS011;61650;48.882;2.092;2023-03-03T02:01:57;30.40;;;16.40;;
51558;SDS011;61650;48.882;2.092;2023-03-03T02:04:23;36.73;;;18.77;;
51558;SDS011;61650;48.882;2.092;2023-03-03T02:06:51;32.78;;;17.13;;
51558;SDS011;61650;48.882;2.092;2023-03-03T02:09:25;32.80;;;17.65;;
51558;SDS011;61650;48.882;2.092;2023-03-03T02:12:13;30.98;;;17.88;;
51558;SDS011;61650;48.882;2.092;2023-03-03T02:14:41;29.48;;;16.08;;
51558;SDS011;61650;48.882;2.092;2023-03-03T02:17:06;33.50;;;16.87;;
51558;SDS011;61650;48.882;2.092;2023-03-03T02:21:58;28.53;;;16.57;;
51558;SDS011;61650;48.882;2.092;2023-03-03T02:24:32;34.30;;;18.20;;
51558;SDS011;61650;48.882;2.092;2023-03-03T02:27:06;30.13;;;16.10;;
51558;SDS011;61650;48.882;2.092;2023-03-03T02:29:31;25.90;;;16.40;;
51558;SDS011;61650;48.882;2.092;2023-03-03T02:31:57;29.90;;;16.33;;
51558;SDS011;61650;48.882;2.092;2023-03-03T02:34:23;28.93;;;15.37;;
51558;SDS011;61650;48.882;2.092;2023-03-03T02:36:48;31.97;;;16.70;;
51558;SDS011;61650;48.882;2.092;2023-03-03T02:44:31;29.40;;;16.50;;
51558;SDS011;61650;48.882;2.092;2023-03-03T02:46:57;34.03;;;17.05;;
51558;SDS011;61650;48.882;2.092;2023-03-03T02:49:26;31.48;;;16.48;;
51558;SDS011;61650;48.882;2.092;2023-03-03T02:51:56;31.77;;;17.92;;
51558;SDS011;61650;48.882;2.092;2023-03-03T02:54:23;30.80;;;17.77;;
51558;SDS011;61650;48.882;2.092;2023-03-03T02:56:49;32.25;;;16.50;;
51558;SDS011;61650;48.882;2.092;2023-03-03T02:59:15;31.67;;;16.57;;
51558;SDS011;61650;48.882;2.092;2023-03-03T03:01:41;31.10;;;15.85;;
51558;SDS011;61650;48.882;2.092;2023-03-03T03:04:10;26.58;;;16.27;;
51558;SDS011;61650;48.882;2.092;2023-03-03T03:06:38;27.60;;;15.43;;
51558;SDS011;61650;48.882;2.092;2023-03-03T03:09:04;31.33;;;16.67;;
51558;SDS011;61650;48.882;2.092;2023-03-03T03:11:31;28.70;;;17.08;;
51558;SDS011;61650;48.882;2.092;2023-03-03T03:13:57;39.23;;;18.57;;
51558;SDS011;61650;48.882;2.092;2023-03-03T03:16:22;31.70;;;17.03;;
51558;SDS011;61650;48.882;2.092;2023-03-03T03:18:48;28.63;;;15.73;;
51558;SDS011;61650;48.882;2.092;2023-03-03T03:21:18;31.60;;;16.58;;
51558;SDS011;61650;48.882;2.092;2023-03-03T03:23:43;31.40;;;15.40;;
51558;SDS011;61650;48.882;2.092;2023-03-03T03:26:09;28.87;;;15.37;;
51558;SDS011;61650;48.882;2.092;2023-03-03T03:28:35;29.80;;;15.13;;
51558;SDS011;61650;48.882;2.092;2023-03-03T03:31:01;34.27;;;16.80;;
51558;SDS011;61650;48.882;2.092;2023-03-03T03:33:28;36.90;;;17.10;;
51558;SDS011;61650;48.882;2.092;2023-03-03T03:35:53;31.47;;;16.93;;
51558;SDS011;61650;48.882;2.092;2023-03-03T03:38:20;34.80;;;17.40;;
51558;SDS011;61650;48.882;2.092;2023-03-03T03:40:47;32.38;;;16.77;;
51558;SDS011;61650;48.882;2.092;2023-03-03T03:43:12;34.77;;;17.27;;
51558;SDS011;61650;48.882;2.092;2023-03-03T03:45:40;30.00;;;17.70;;
51558;SDS011;61650;48.882;2.092;2023-03-03T03:48:06;27.98;;;16.48;;
51558;SDS011;61650;48.882;2.092;2023-03-03T03:50:32;30.33;;;16.27;;
51558;SDS011;61650;48.882;2.092;2023-03-03T03:52:58;27.30;;;15.57;;
51558;SDS011;61650;48.882;2.092;2023-03-03T03:55:23;26.63;;;15.93;;
51558;SDS011;61650;48.882;2.092;2023-03-03T03:57:49;26.87;;;14.97;;
51558;SDS011;61650;48.882;2.092;2023-03-03T04:00:15;28.57;;;16.27;;
51558;SDS011;61650;48.882;2.092;2023-03-03T04:02:41;35.60;;;17.48;;
51558;SDS011;61650;48.882;2.092;2023-03-03T04:05:07;32.03;;;16.60;;
51558;SDS011;61650;48.882;2.092;2023-03-03T04:07:33;31.00;;;16.88;;
51558;SDS011;61650;48.882;2.092;2023-03-03T04:09:58;34.73;;;17.70;;
51558;SDS011;61650;48.882;2.092;2023-03-03T04:12:24;27.33;;;16.27;;
51558;SDS011;61650;48.882;2.092;2023-03-03T04:14:50;30.70;;;17.00;;
51558;SDS011;61650;48.882;2.092;2023-03-03T04:17:16;33.80;;;16.90;;
51558;SDS011;61650;48.882;2.092;2023-03-03T04:19:43;38.28;;;17.27;;
51558;SDS011;61650;48.882;2.092;2023-03-03T04:22:09;34.60;;;17.20;;
51558;SDS011;61650;48.882;2.092;2023-03-03T04:24:37;34.10;;;16.95;;
51558;SDS011;61650;48.882;2.092;2023-03-03T04:27:03;30.33;;;17.10;;
51558;SDS011;61650;48.882;2.092;2023-03-03T04:29:29;32.40;;;17.47;;
51558;SDS011;61650;48.882;2.092;2023-03-03T04:31:55;30.87;;;16.57;;
51558;SDS011;61650;48.882;2.092;2023-03-03T04:34:20;26.50;;;16.00;;
51558;SDS011;61650;48.882;2.092;2023-03-03T04:36:46;28.93;;;15.90;;
51558;SDS011;61650;48.882;2.092;2023-03-03T04:39:12;28.90;;;16.37;;
51558;SDS011;61650;48.882;2.092;2023-03-03T04:41:37;32.90;;;18.30;;
51558;SDS011;61650;48.882;2.092;2023-03-03T04:44:03;35.27;;;18.10;;
51558;SDS011;61650;48.882;2.092;2023-03-03T04:46:29;29.40;;;16.77;;
51558;SDS011;61650;48.882;2.092;2023-03-03T04:48:54;35.20;;;16.80;;
51558;SDS011;61650;48.882;2.092;2023-03-03T04:51:20;33.13;;;16.65;;
51558;SDS011;61650;48.882;2.092;2023-03-03T04:53:46;30.27;;;16.93;;
51558;SDS011;61650;48.882;2.092;2023-03-03T04:56:12;30.13;;;16.40;;
51558;SDS011;61650;48.882;2.092;2023-03-03T04:58:37;31.80;;;17.17;;
51558;SDS011;61650;48.882;2.092;2023-03-03T05:01:03;31.20;;;17.30;;
51558;SDS011;61650;48.882;2.092;2023-03-03T05:03:29;40.37;;;16.80;;
51558;SDS011;61650;48.882;2.092;2023-03-03T05:05:55;31.67;;;17.17;;
51558;SDS011;61650;48.882;2.092;2023-03-03T05:08:20;29.03;;;16.20;;
51558;SDS011;61650;48.882;2.092;2023-03-03T05:10:49;36.35;;;17.95;;
51558;SDS011;61650;48.882;2.092;2023-03-03T05:13:16;30.05;;;17.45;;
51558;SDS011;61650;48.882;2.092;2023-03-03T05:15:42;33.87;;;17.47;;
51558;SDS011;61650;48.882;2.092;2023-03-03T05:18:07;35.40;;;17.93;;
51558;SDS011;61650;48.882;2.092;2023-03-03T05:20:33;32.83;;;17.27;;
51558;SDS011;61650;48.882;2.092;2023-03-03T05:22:59;32.10;;;17.70;;
51558;SDS011;61650;48.882;2.092;2023-03-03T05:25:25;33.63;;;17.27;;
51558;SDS011;61650;48.882;2.092;2023-03-03T05:27:51;33.50;;;18.30;;
51558;SDS011;61650;48.882;2.092;2023-03-03T05:30:16;34.23;;;17.47;;
51558;SDS011;61650;48.882;2.092;2023-03-03T05:32:42;29.40;;;15.57;;
51558;SDS011;61650;48.882;2.092;2023-03-03T05:35:08;35.10;;;17.87;;
51558;SDS011;61650;48.882;2.092;2023-03-03T05:37:34;30.02;;;16.73;;
51558;SDS011;61650;48.882;2.092;2023-03-03T05:39:59;31.53;;;16.93;;
51558;SDS011;61650;48.882;2.092;2023-03-03T05:42:25;33.43;;;16.50;;
51558;SDS011;61650;48.882;2.092;2023-03-03T05:44:51;35.40;;;18.00;;
51558;SDS011;61650;48.882;2.092;2023-03-03T05:47:16;31.60;;;17.97;;
51558;SDS011;61650;48.882;2.092;2023-03-03T05:49:42;42.33;;;18.13;;
51558;SDS011;61650;48.882;2.092;2023-03-03T05:52:07;34.20;;;18.00;;
51558;SDS011;61650;48.882;2.092;2023-03-03T05:54:33;29.40;;;16.80;;
51558;SDS011;61650;48.882;2.092;2023-03-03T05:57:00;37.25;;;18.15;;
51558;SDS011;61650;48.882;2.092;2023-03-03T05:59:26;37.78;;;18.85;;
51558;SDS011;61650;48.882;2.092;2023-03-03T06:01:51;36.33;;;19.40;;
51558;SDS011;61650;48.882;2.092;2023-03-03T06:04:17;34.77;;;19.00;;
51558;SDS011;61650;48.882;2.092;2023-03-03T06:06:42;32.00;;;17.43;;
51558;SDS011;61650;48.882;2.092;2023-03-03T06:09:08;35.97;;;18.70;;
51558;SDS011;61650;48.882;2.092;2023-03-03T06:11:34;31.40;;;17.90;;
51558;SDS011;61650;48.882;2.092;2023-03-03T06:13:59;32.40;;;17.10;;
51558;SDS011;61650;48.882;2.092;2023-03-03T06:16:25;32.73;;;17.30;;
51558;SDS011;61650;48.882;2.092;2023-03-03T06:18:50;38.47;;;21.67;;
51558;SDS011;61650;48.882;2.092;2023-03-03T06:21:16;33.37;;;17.77;;
51558;SDS011;61650;48.882;2.092;2023-03-03T06:23:42;40.17;;;18.70;;
51558;SDS011;61650;48.882;2.092;2023-03-03T06:26:07;33.80;;;18.63;;
51558;SDS011;61650;48.882;2.092;2023-03-03T06:28:33;35.43;;;19.00;;
51558;SDS011;61650;48.882;2.092;2023-03-03T06:30:59;35.20;;;19.13;;
51558;SDS011;61650;48.882;2.092;2023-03-03T06:33:24;38.50;;;20.00;;
51558;SDS011;61650;48.882;2.092;2023-03-03T06:35:51;39.58;;;20.13;;
51558;SDS011;61650;48.882;2.092;2023-03-03T06:38:17;35.78;;;20.05;;
51558;SDS011;61650;48.882;2.092;2023-03-03T06:40:44;35.95;;;18.90;;
51558;SDS011;61650;48.882;2.092;2023-03-03T06:43:11;38.97;;;20.52;;
51558;SDS011;61650;48.882;2.092;2023-03-03T06:45:37;40.80;;;21.15;;
51558;SDS011;61650;48.882;2.092;2023-03-03T06:48:03;42.10;;;20.73;;
51558;SDS011;61650;48.882;2.092;2023-03-03T06:50:29;44.50;;;22.27;;
51558;SDS011;61650;48.882;2.092;2023-03-03T06:53:01;37.77;;;20.57;;
51558;SDS011;61650;48.882;2.092;2023-03-03T06:55:35;37.83;;;21.25;;
51558;SDS011;61650;48.882;2.092;2023-03-03T06:58:04;41.83;;;21.90;;
51558;SDS011;61650;48.882;2.092;2023-03-03T07:00:35;35.88;;;21.48;;
51558;SDS011;61650;48.882;2.092;2023-03-03T07:03:04;44.20;;;23.50;;
51558;SDS011;61650;48.882;2.092;2023-03-03T07:05:36;41.42;;;23.90;;
51558;SDS011;61650;48.882;2.092;2023-03-03T07:08:02;46.80;;;23.40;;
51558;SDS011;61650;48.882;2.092;2023-03-03T07:10:35;46.67;;;24.45;;
51558;SDS011;61650;48.882;2.092;2023-03-03T07:15:49;44.83;;;22.92;;
51558;SDS011;61650;48.882;2.092;2023-03-03T07:18:30;46.10;;;24.23;;
51558;SDS011;61650;48.882;2.092;2023-03-03T07:20:58;38.05;;;21.08;;
51558;SDS011;61650;48.882;2.092;2023-03-03T07:23:37;43.80;;;22.98;;
51558;SDS011;61650;48.882;2.092;2023-03-03T07:26:28;45.38;;;24.15;;
51558;SDS011;61650;48.882;2.092;2023-03-03T07:34:01;39.28;;;22.77;;
51558;SDS011;61650;48.882;2.092;2023-03-03T07:36:40;47.00;;;23.65;;
51558;SDS011;61650;48.882;2.092;2023-03-03T07:41:50;41.70;;;23.52;;
51558;SDS011;61650;48.882;2.092;2023-03-03T07:44:25;39.53;;;24.17;;
51558;SDS011;61650;48.882;2.092;2023-03-03T07:46:59;43.03;;;22.17;;
51558;SDS011;61650;48.882;2.092;2023-03-03T07:49:42;40.40;;;22.65;;
51558;SDS011;61650;48.882;2.092;2023-03-03T07:52:25;44.93;;;23.33;;
51558;SDS011;61650;48.882;2.092;2023-03-03T07:55:00;49.90;;;25.70;;
51558;SDS011;61650;48.882;2.092;2023-03-03T07:57:43;46.60;;;24.25;;
51558;SDS011;61650;48.882;2.092;2023-03-03T08:03:02;43.50;;;25.58;;
51558;SDS011;61650;48.882;2.092;2023-03-03T08:05:39;47.58;;;26.02;;
51558;SDS011;61650;48.882;2.092;2023-03-03T08:10:56;43.75;;;26.23;;
51558;SDS011;61650;48.882;2.092;2023-03-03T08:18:37;46.58;;;26.13;;
51558;SDS011;61650;48.882;2.092;2023-03-03T08:21:13;43.55;;;25.60;;
51558;SDS011;61650;48.882;2.092;2023-03-03T08:23:40;51.15;;;26.23;;
51558;SDS011;61650;48.882;2.092;2023-03-03T08:26:06;49.70;;;24.17;;
51558;SDS011;61650;48.882;2.092;2023-03-03T08:28:32;45.90;;;25.00;;
51558;SDS011;61650;48.882;2.092;2023-03-03T08:30:57;41.90;;;24.30;;
51558;SDS011;61650;48.882;2.092;2023-03-03T08:33:23;46.10;;;27.40;;
51558;SDS011;61650;48.882;2.092;2023-03-03T08:35:49;48.53;;;26.23;;
51558;SDS011;61650;48.882;2.092;2023-03-03T08:38:16;40.47;;;23.80;;
51558;SDS011;61650;48.882;2.092;2023-03-03T08:40:44;46.20;;;25.48;;
51558;SDS011;61650;48.882;2.092;2023-03-03T08:43:10;46.70;;;24.77;;
51558;SDS011;61650;48.882;2.092;2023-03-03T08:45:41;41.22;;;22.85;;
51558;SDS011;61650;48.882;2.092;2023-03-03T08:48:09;44.75;;;26.48;;
51558;SDS011;61650;48.882;2.092;2023-03-03T08:50:35;45.80;;;24.67;;
51558;SDS011;61650;48.882;2.092;2023-03-03T08:53:00;44.53;;;23.80;;
51558;SDS011;61650;48.882;2.092;2023-03-03T08:55:26;40.33;;;22.20;;
51558;SDS011;61650;48.882;2.092;2023-03-03T08:57:52;46.30;;;24.83;;
51558;SDS011;61650;48.882;2.092;2023-03-03T09:00:17;44.33;;;23.00;;
51558;SDS011;61650;48.882;2.092;2023-03-03T09:02:43;42.35;;;24.08;;
51558;SDS011;61650;48.882;2.092;2023-03-03T09:05:09;43.13;;;23.53;;
51558;SDS011;61650;48.882;2.092;2023-03-03T09:07:36;53.10;;;24.45;;
51558;SDS011;61650;48.882;2.092;2023-03-03T09:10:02;42.08;;;23.45;;
51558;SDS011;61650;48.882;2.092;2023-03-03T09:12:35;40.15;;;21.55;;
51558;SDS011;61650;48.882;2.092;2023-03-03T09:15:14;39.97;;;22.00;;
51558;SDS011;61650;48.882;2.092;2023-03-03T09:17:48;42.85;;;23.17;;
51558;SDS011;61650;48.882;2.092;2023-03-03T09:22:46;46.35;;;23.95;;
51558;SDS011;61650;48.882;2.092;2023-03-03T09:25:17;43.55;;;22.20;;
51558;SDS011;61650;48.882;2.092;2023-03-03T09:28:00;40.30;;;22.65;;
51558;SDS011;61650;48.882;2.092;2023-03-03T09:33:23;37.35;;;22.50;;
51558;SDS011;61650;48.882;2.092;2023-03-03T09:36:00;35.97;;;20.73;;
51558;SDS011;61650;48.882;2.092;2023-03-03T09:38:34;36.30;;;21.63;;
51558;SDS011;61650;48.882;2.092;2023-03-03T09:52:10;34.88;;;20.48;;
51558;SDS011;61650;48.882;2.092;2023-03-03T09:57:54;33.92;;;19.38;;
51558;SDS011;61650;48.882;2.092;2023-03-03T10:06:10;40.05;;;19.10;;
51558;SDS011;61650;48.882;2.092;2023-03-03T10:11:37;38.13;;;20.42;;
51558;SDS011;61650;48.882;2.092;2023-03-03T10:14:32;32.97;;;18.13;;
51558;SDS011;61650;48.882;2.092;2023-03-03T10:23:17;31.60;;;17.25;;
51558;SDS011;61650;48.882;2.092;2023-03-03T10:42:15;30.83;;;16.98;;
51558;SDS011;61650;48.882;2.092;2023-03-03T10:55:13;30.17;;;16.17;;
51558;SDS011;61650;48.882;2.092;2023-03-03T11:00:40;32.97;;;16.90;;
51558;SDS011;61650;48.882;2.092;2023-03-03T11:06:27;29.48;;;16.55;;
51558;SDS011;61650;48.882;2.092;2023-03-03T11:09:04;28.52;;;16.20;;
51558;SDS011;61650;48.882;2.092;2023-03-03T11:18:54;26.33;;;15.25;;
51558;SDS011;61650;48.882;2.092;2023-03-03T11:23:28;26.85;;;16.13;;
51558;SDS011;61650;48.882;2.092;2023-03-03T11:34:24;26.33;;;16.00;;
51558;SDS011;61650;48.882;2.092;2023-03-03T11:37:10;26.63;;;15.18;;
51558;SDS011;61650;48.882;2.092;2023-03-03T11:40:18;25.48;;;14.75;;
51558;SDS011;61650;48.882;2.092;2023-03-03T11:43:00;24.20;;;14.68;;
51558;SDS011;61650;48.882;2.092;2023-03-03T11:45:38;21.80;;;13.30;;
51558;SDS011;61650;48.882;2.092;2023-03-03T11:48:21;24.08;;;13.98;;
51558;SDS011;61650;48.882;2.092;2023-03-03T11:50:57;24.48;;;14.38;;
51558;SDS011;61650;48.882;2.092;2023-03-03T11:56:28;25.48;;;15.07;;
51558;SDS011;61650;48.882;2.092;2023-03-03T12:01:41;23.70;;;13.02;;
51558;SDS011;61650;48.882;2.092;2023-03-03T12:04:26;22.77;;;13.10;;
51558;SDS011;61650;48.882;2.092;2023-03-03T12:12:43;21.10;;;13.38;;
51558;SDS011;61650;48.882;2.092;2023-03-03T12:15:37;20.77;;;12.55;;
51558;SDS011;61650;48.882;2.092;2023-03-03T12:23:48;17.30;;;11.53;;
51558;SDS011;61650;48.882;2.092;2023-03-03T12:26:29;16.77;;;10.80;;
51558;SDS011;61650;48.882;2.092;2023-03-03T12:29:04;19.63;;;11.02;;
51558;SDS011;61650;48.882;2.092;2023-03-03T12:45:32;17.60;;;10.53;;
51558;SDS011;61650;48.882;2.092;2023-03-03T12:48:52;17.33;;;10.27;;
51558;SDS011;61650;48.882;2.092;2023-03-03T12:54:03;18.17;;;10.70;;
51558;SDS011;61650;48.882;2.092;2023-03-03T12:56:52;17.23;;;9.50;;
51558;SDS011;61650;48.882;2.092;2023-03-03T13:02:37;13.37;;;9.13;;
51558;SDS011;61650;48.882;2.092;2023-03-03T13:05:29;14.70;;;9.20;;
51558;SDS011;61650;48.882;2.092;2023-03-03T13:08:20;14.13;;;9.37;;
51558;SDS011;61650;48.882;2.092;2023-03-03T13:18:37;15.50;;;8.93;;
51558;SDS011;61650;48.882;2.092;2023-03-03T13:21:20;14.30;;;9.40;;
51558;SDS011;61650;48.882;2.092;2023-03-03T13:29:46;13.00;;;9.00;;
51558;SDS011;61650;48.882;2.092;2023-03-03T13:35:28;16.33;;;10.60;;
51558;SDS011;61650;48.882;2.092;2023-03-03T13:38:27;16.13;;;10.37;;
51558;SDS011;61650;48.882;2.092;2023-03-03T13:46:32;17.77;;;10.40;;
51558;SDS011;61650;48.882;2.092;2023-03-03T13:57:13;12.87;;;9.20;;
51558;SDS011;61650;48.882;2.092;2023-03-03T14:11:06;14.27;;;9.50;;
51558;SDS011;61650;48.882;2.092;2023-03-03T14:19:25;12.83;;;9.30;;
51558;SDS011;61650;48.882;2.092;2023-03-03T14:22:05;12.93;;;9.13;;
51558;SDS011;61650;48.882;2.092;2023-03-03T14:27:35;13.47;;;9.60;;
51558;SDS011;61650;48.882;2.092;2023-03-03T14:30:27;11.70;;;9.03;;
51558;SDS011;61650;48.882;2.092;2023-03-03T14:33:01;12.23;;;10.00;;
51558;SDS011;61650;48.882;2.092;2023-03-03T14:38:16;13.97;;;10.33;;
51558;SDS011;61650;48.882;2.092;2023-03-03T14:40:44;13.50;;;9.47;;
51558;SDS011;61650;48.882;2.092;2023-03-03T14:43:24;12.43;;;9.93;;
51558;SDS011;61650;48.882;2.092;2023-03-03T14:45:57;13.97;;;9.90;;
51558;SDS011;61650;48.882;2.092;2023-03-03T14:48:58;12.93;;;10.20;;
51558;SDS011;61650;48.882;2.092;2023-03-03T14:51:32;12.97;;;10.00;;
51558;SDS011;61650;48.882;2.092;2023-03-03T14:54:05;15.73;;;11.03;;
51558;SDS011;61650;48.882;2.092;2023-03-03T14:59:21;13.53;;;10.17;;
51558;SDS011;61650;48.882;2.092;2023-03-03T15:01:56;11.07;;;8.60;;
51558;SDS011;61650;48.882;2.092;2023-03-03T15:04:24;11.03;;;8.10;;
51558;SDS011;61650;48.882;2.092;2023-03-03T15:06:52;9.87;;;7.50;;
51558;SDS011;61650;48.882;2.092;2023-03-03T15:11:52;10.90;;;7.50;;
51558;SDS011;61650;48.882;2.092;2023-03-03T15:14:21;13.07;;;7.67;;
51558;SDS011;61650;48.882;2.092;2023-03-03T15:17:11;11.00;;;7.80;;
51558;SDS011;61650;48.882;2.092;2023-03-03T15:22:44;11.27;;;8.07;;
51558;SDS011;61650;48.882;2.092;2023-03-03T15:25:30;11.33;;;8.30;;
51558;SDS011;61650;48.882;2.092;2023-03-03T15:31:14;9.73;;;8.17;;
51558;SDS011;61650;48.882;2.092;2023-03-03T15:37:12;13.73;;;8.07;;
51558;SDS011;61650;48.882;2.092;2023-03-03T15:39:45;11.77;;;7.70;;
51558;SDS011;61650;48.882;2.092;2023-03-03T15:42:26;12.77;;;8.90;;
51558;SDS011;61650;48.882;2.092;2023-03-03T15:50:57;13.27;;;9.63;;
51558;SDS011;61650;48.882;2.092;2023-03-03T16:01:44;13.13;;;10.03;;
51558;SDS011;61650;48.882;2.092;2023-03-03T16:04:47;17.83;;;11.73;;
51558;SDS011;61650;48.882;2.092;2023-03-03T16:07:34;18.75;;;11.48;;
51558;SDS011;61650;48.882;2.092;2023-03-03T16:23:59;15.30;;;9.67;;
51558;SDS011;61650;48.882;2.092;2023-03-03T16:26:56;16.03;;;10.40;;
51558;SDS011;61650;48.882;2.092;2023-03-03T16:32:31;14.85;;;9.82;;
51558;SDS011;61650;48.882;2.092;2023-03-03T16:35:23;16.42;;;10.88;;
51558;SDS011;61650;48.882;2.092;2023-03-03T16:38:22;18.08;;;11.52;;
51558;SDS011;61650;48.882;2.092;2023-03-03T16:40:54;18.13;;;11.02;;
51558;SDS011;61650;48.882;2.092;2023-03-03T16:46:43;17.33;;;11.55;;
51558;SDS011;61650;48.882;2.092;2023-03-03T16:51:45;19.17;;;11.17;;
51558;SDS011;61650;48.882;2.092;2023-03-03T16:54:38;18.75;;;12.02;;
51558;SDS011;61650;48.882;2.092;2023-03-03T16:57:21;18.15;;;11.27;;
51558;SDS011;61650;48.882;2.092;2023-03-03T17:02:52;21.02;;;11.57;;
51558;SDS011;61650;48.882;2.092;2023-03-03T17:11:06;22.58;;;11.60;;
51558;SDS011;61650;48.882;2.092;2023-03-03T17:22:18;21.40;;;11.40;;
51558;SDS011;61650;48.882;2.092;2023-03-03T17:25:04;21.60;;;11.93;;
51558;SDS011;61650;48.882;2.092;2023-03-03T17:33:38;20.70;;;12.48;;
51558;SDS011;61650;48.882;2.092;2023-03-03T17:42:02;20.77;;;11.73;;
51558;SDS011;61650;48.882;2.092;2023-03-03T17:47:55;20.08;;;12.93;;
51558;SDS011;61650;48.882;2.092;2023-03-03T17:53:35;21.38;;;11.27;;
51558;SDS011;61650;48.882;2.092;2023-03-03T18:01:44;22.73;;;12.68;;
51558;SDS011;61650;48.882;2.092;2023-03-03T18:21:21;20.63;;;11.52;;
51558;SDS011;61650;48.882;2.092;2023-03-03T18:23:53;20.08;;;11.93;;
51558;SDS011;61650;48.882;2.092;2023-03-03T18:26:50;20.52;;;11.82;;
51558;SDS011;61650;48.882;2.092;2023-03-03T18:37:06;19.48;;;11.90;;
51558;SDS011;61650;48.882;2.092;2023-03-03T18:44:51;20.10;;;11.98;;
51558;SDS011;61650;48.882;2.092;2023-03-03T18:47:16;22.90;;;13.77;;
51558;SDS011;61650;48.882;2.092;2023-03-03T18:49:49;19.17;;;12.10;;
51558;SDS011;61650;48.882;2.092;2023-03-03T18:53:04;22.52;;;13.15;;
51558;SDS011;61650;48.882;2.092;2023-03-03T18:55:40;27.08;;;14.10;;
51558;SDS011;61650;48.882;2.092;2023-03-03T19:04:17;22.35;;;13.60;;
51558;SDS011;61650;48.882;2.092;2023-03-03T19:09:08;24.80;;;14.50;;
51558;SDS011;61650;48.882;2.092;2023-03-03T19:11:39;24.05;;;14.73;;
51558;SDS011;61650;48.882;2.092;2023-03-03T19:14:19;21.80;;;13.05;;
51558;SDS011;61650;48.882;2.092;2023-03-03T19:16:53;25.90;;;15.27;;
51558;SDS011;61650;48.882;2.092;2023-03-03T19:19:32;28.60;;;16.60;;
51558;SDS011;61650;48.882;2.092;2023-03-03T19:22:20;29.63;;;15.50;;
51558;SDS011;61650;48.882;2.092;2023-03-03T19:28:08;28.73;;;15.80;;
51558;SDS011;61650;48.882;2.092;2023-03-03T19:45:29;27.38;;;15.40;;
51558;SDS011;61650;48.882;2.092;2023-03-03T19:48:35;31.00;;;16.10;;
51558;SDS011;61650;48.882;2.092;2023-03-03T19:56:39;30.67;;;15.70;;
51558;SDS011;61650;48.882;2.092;2023-03-03T19:59:35;28.10;;;14.70;;
51558;SDS011;61650;48.882;2.092;2023-03-03T20:07:25;28.17;;;16.35;;
51558;SDS011;61650;48.882;2.092;2023-03-03T20:10:11;26.88;;;15.57;;
51558;SDS011;61650;48.882;2.092;2023-03-03T20:18:29;28.23;;;16.00;;
51558;SDS011;61650;48.882;2.092;2023-03-03T20:26:30;27.90;;;16.45;;
51558;SDS011;61650;48.882;2.092;2023-03-03T20:29:15;36.47;;;16.50;;
51558;SDS011;61650;48.882;2.092;2023-03-03T20:35:10;44.67;;;22.77;;
51558;SDS011;61650;48.882;2.092;2023-03-03T20:37:45;43.78;;;20.50;;
51558;SDS011;61650;48.882;2.092;2023-03-03T20:40:55;39.40;;;20.15;;
51558;SDS011;61650;48.882;2.092;2023-03-03T20:43:27;33.15;;;18.42;;
51558;SDS011;61650;48.882;2.092;2023-03-03T20:48:52;34.78;;;17.90;;
51558;SDS011;61650;48.882;2.092;2023-03-03T20:57:21;37.63;;;19.25;;
51558;SDS011;61650;48.882;2.092;2023-03-03T21:00:06;36.90;;;19.30;;
51558;SDS011;61650;48.882;2.092;2023-03-03T21:05:18;36.50;;;19.63;;
51558;SDS011;61650;48.882;2.092;2023-03-03T21:07:52;33.42;;;18.13;;
51558;SDS011;61650;48.882;2.092;2023-03-03T21:10:19;37.50;;;17.88;;
51558;SDS011;61650;48.882;2.092;2023-03-03T21:12:51;31.20;;;17.95;;
51558;SDS011;61650;48.882;2.092;2023-03-03T21:17:55;33.08;;;17.30;;
51558;SDS011;61650;48.882;2.092;2023-03-03T21:22:58;34.10;;;17.10;;
51558;SDS011;61650;48.882;2.092;2023-03-03T21:25:41;33.55;;;18.33;;
51558;SDS011;61650;48.882;2.092;2023-03-03T21:28:18;35.67;;;18.90;;
51558;SDS011;61650;48.882;2.092;2023-03-03T21:36:12;35.45;;;19.00;;
51558;SDS011;61650;48.882;2.092;2023-03-03T21:38:39;33.00;;;17.60;;
51558;SDS011;61650;48.882;2.092;2023-03-03T21:41:05;33.20;;;18.60;;
51558;SDS011;61650;48.882;2.092;2023-03-03T21:43:51;33.33;;;17.33;;